Terminal Aerodrome Forecast
Issued by NWS

Home | Current Version | Previous Version | Text Only | Print | Product List | Glossary On
Versions: 1 2 3 4 5 6 7 8 9 10 11 12 13 14 15 16 17 18 19 20 21 22 23 24 25 26 27 28 29 30 31 32 33 34 35 36 37 38 39 40 41 42 43
000
FTUS45 KBOI 291318 AAA
TAFJER
TAF AMD
KJER 291318Z 2913/3012 02005KT 3SM BR VCSH OVC005
      TEMPO 2913/2917 1SM -SHSN BR BKN004
     FM292100 06011KT P6SM BKN020
     FM300300 05015KT P6SM BKN050=

USA.gov is the U.S. government's official web portal to all federal, state and local government web resources and services.